• Join FlightAware (Why Join?)
  • Login
  • US Flag 
10:45AM EDT


 

Airport Tracker/Info


-or-


 

Live Flight TrackerFlight Track Log ✈ DAL2205 ✈ 08-May-2013 ✈ KATL - KGPT

Flight Track Log - Related Links

Times and Time Zones

All times are in EDT time to prevent confusion due to time zone crossing. See the DAL2205 flight status page for this flight to view local times or setup timezone preferences in your user account.

Time Position Orientation Groundspeed Altitude Reporting Facility
EDT Latitude Longitude Course Direction KTS MPH feet Rate Location/Type
10:29PM 33.6500 -84.5000 234° Southwest 222 255 3,200  Level Atlanta TRACON
10:30PM 33.6667 -84.5833 284° West 256 295 6,500 3,060 Climbing Atlanta TRACON
10:31PM 33.6833 -84.6667 284° West 278 320 9,400 2,280 Climbing Atlanta TRACON
10:32PM 33.7000 -84.7667 281° West 314 361 11,300 1,740 Climbing Atlanta TRACON
10:33PM 33.7430 -84.6657 234° Southwest  Level FlightAware Approximate
10:33PM 33.6369 -84.8922 239° Southwest 397 457 13,500  Level Atlanta Center
10:34PM 33.6701 -84.7840 234° Southwest  Level FlightAware Approximate
10:34PM 33.5797 -85.0089 240° Southwest 407 468 16,100  Level Atlanta Center
10:35PM 33.5158 -85.1353 239° Southwest 407 468 18,400 2,160 Climbing Atlanta Center
10:36PM 33.4647 -85.2639 245° Southwest 414 476 20,500 2,040 Climbing Atlanta Center
10:37PM 33.4028 -85.3900 240° Southwest 428 493 22,500 2,040 Climbing Atlanta Center
10:38PM 33.3139 -85.4956 225° Southwest 441 507 24,600 2,160 Climbing Atlanta Center
10:39PM 33.2292 -85.6058 227° Southwest 447 514 26,900 1,980 Climbing Atlanta Center
10:40PM 33.1442 -85.7133 227° Southwest 452 520 28,600 1,500 Climbing Atlanta Center
10:41PM 33.0592 -85.8233 227° Southwest 452 520 29,900 660 Climbing Atlanta Center
10:42PM 32.9739 -85.9331 227° Southwest 452 520 30,000  Climbing Atlanta Center
10:43PM 32.8889 -86.0450 228° Southwest 462 532 30,000  Level Atlanta Center
10:44PM 32.8014 -86.1517 226° Southwest 462 532 30,000  Level Atlanta Center
10:45PM 32.7139 -86.2633 227° Southwest 462 532 30,000  Level Atlanta Center
10:46PM 32.6283 -86.3719 227° Southwest 462 532 30,000  Level Atlanta Center
10:47PM 32.5406 -86.4831 227° Southwest 462 532 30,000  Level Atlanta Center
10:48PM 32.4611 -86.5967 230° Southwest 462 532 30,000  Level Atlanta Center
10:49PM 32.3714 -86.6997 224° Southwest 457 526 30,000  Level Atlanta Center
10:50PM 32.2897 -86.7956 225° Southwest 457 526 30,000  Level Atlanta Center
10:51PM 32.2019 -86.9008 225° Southwest 457 526 30,000  Level Atlanta Center
10:52PM 32.1158 -87.0083 227° Southwest 457 526 30,000  Level Atlanta Center
10:53PM 32.0278 -87.1133 225° Southwest 457 526 30,000  Level Atlanta Center
10:54PM 31.9417 -87.2181 226° Southwest 457 526 30,000 -720 Level Atlanta Center
10:56PM 31.7822 -87.4122 226° Southwest 439 505 28,100 -720 Descending Houston Center
10:57PM 31.6939 -87.5167 225° Southwest 448 516 28,000 -60 Descending Houston Center
10:58PM 31.6058 -87.6253 226° Southwest 457 526 28,000  Level Houston Center
10:59PM 31.5167 -87.7314 225° Southwest 458 527 28,000  Level Houston Center
11:00PM 31.4286 -87.8392 226° Southwest 459 528 28,000 -300 Level Houston Center
11:01PM 31.3403 -87.9461 226° Southwest 458 527 27,400 -1,740 Descending Houston Center
11:02PM 31.2528 -88.0517 226° Southwest 456 525 24,500 -1,680 Descending Houston Center
11:03PM 31.1686 -88.1511 225° Southwest 434 499 24,000 -960 Descending Houston Center
11:04PM 31.0850 -88.2522 226° Southwest 425 489 22,600 -2,520 Descending Houston Center
11:05PM 31.0119 -88.3669 233° Southwest 402 463 18,900 -3,240 Descending Houston Center
11:06PM 30.9475 -88.4650 233° Southwest 386 444 16,100 -2,820 Descending Houston Center
11:07PM 30.8856 -88.5586 232° Southwest 368 423 13,200 -2,400 Descending Houston Center
11:08PM 30.8264 -88.6497 233° Southwest 357 411 11,300 -1,380 Descending Houston Center
11:09PM 30.7703 -88.7303 231° Southwest 324 373 10,400 -1,320 Descending Houston Center
11:10PM 30.7214 -88.8064 233° Southwest 300 345 8,700 -1,860 Descending Houston Center
11:11PM 30.6719 -88.8794 232° Southwest 290 334 6,700 -2,100 Descending Houston Center
11:12PM 30.6208 -88.9586 233° Southwest 278 320 4,500 -1,800 Descending Houston Center
11:14PM 30.5783 -89.0300 235° Southwest 271 312 3,100 -1,140 Descending Houston Center
11:15PM 30.5600 -89.0944 252° West 218 251 2,300 -600 Descending Houston Center
11:16PM 30.5439 -89.1528 252° West 195 224 2,000 -180 Descending Houston Center
11:17PM 30.5706 -89.1764 323° Northwest 182 209 2,000  Level Houston Center
11:18PM 30.5436 -89.1517 142° Southeast 167 192 2,000  Level Houston Center